createdAt,value
2022-10-21T00:01:12.244Z,14.43
2022-10-21T00:03:40.973Z,14.42
2022-10-21T00:06:10.462Z,14.41
2022-10-21T00:08:40.246Z,14.40
2022-10-21T00:11:10.581Z,14.39
2022-10-21T00:13:40.748Z,14.36
2022-10-21T00:16:12.171Z,14.34
2022-10-21T00:18:43.260Z,14.32
2022-10-21T00:21:15.393Z,14.29
2022-10-21T00:23:44.327Z,14.26
2022-10-21T00:26:13.768Z,14.25
2022-10-21T00:28:43.873Z,14.26
2022-10-21T00:31:14.769Z,14.27
2022-10-21T00:33:43.619Z,14.31
2022-10-21T00:36:15.149Z,14.31
2022-10-21T00:38:46.168Z,14.28
2022-10-21T00:41:16.575Z,14.27
2022-10-21T00:43:58.376Z,14.31
2022-10-21T00:46:36.603Z,14.44
2022-10-21T00:49:13.227Z,14.55
2022-10-21T00:51:42.191Z,14.64
2022-10-21T00:54:11.528Z,14.69
2022-10-21T00:56:42.743Z,14.75
2022-10-21T00:59:12.987Z,14.76
2022-10-21T01:01:41.630Z,14.78
2022-10-21T01:04:10.419Z,14.79
2022-10-21T01:06:40.574Z,14.81
2022-10-21T01:09:09.530Z,14.80
2022-10-21T01:11:43.333Z,14.78
2022-10-21T01:14:47.108Z,14.75
2022-10-21T01:17:44.030Z,14.72
2022-10-21T01:20:59.168Z,14.68
2022-10-21T01:24:37.280Z,14.65
2022-10-21T01:27:39.419Z,14.62
2022-10-21T01:30:42.932Z,14.59
2022-10-21T01:33:39.855Z,14.59
2022-10-21T01:36:22.940Z,14.58
2022-10-21T01:39:06.529Z,14.58
2022-10-21T01:41:42.541Z,14.58
2022-10-21T01:44:22.076Z,14.57
2022-10-21T01:46:58.793Z,14.56
2022-10-21T01:49:33.207Z,14.56
2022-10-21T01:52:03.387Z,14.54
2022-10-21T01:54:36.280Z,14.51
2022-10-21T01:57:07.493Z,14.50
2022-10-21T01:59:37.413Z,14.48
2022-10-21T02:02:09.956Z,14.46
2022-10-21T02:04:42.377Z,14.45
2022-10-21T02:07:11.442Z,14.44
2022-10-21T02:09:39.952Z,14.41
2022-10-21T02:12:10.471Z,14.40
2022-10-21T02:14:43.443Z,14.39
2022-10-21T02:17:17.332Z,14.37
2022-10-21T02:19:46.652Z,14.35
2022-10-21T02:22:21.379Z,14.34
2022-10-21T02:24:54.752Z,14.34
2022-10-21T02:27:24.180Z,14.33
2022-10-21T02:29:58.716Z,14.33
2022-10-21T02:32:37.912Z,14.29
2022-10-21T02:35:23.077Z,14.28
2022-10-21T02:38:00.855Z,14.29
2022-10-21T02:40:35.403Z,14.28
2022-10-21T02:43:10.313Z,14.27
2022-10-21T02:45:40.529Z,14.27
2022-10-21T02:48:10.129Z,14.28
2022-10-21T02:50:38.389Z,14.27
2022-10-21T02:53:07.612Z,14.25
2022-10-21T02:55:36.093Z,14.25
2022-10-21T02:58:04.792Z,14.24
2022-10-21T03:00:33.472Z,14.24
2022-10-21T03:03:02.068Z,14.23
2022-10-21T03:08:00.089Z,14.20
2022-10-21T03:10:28.665Z,14.20
2022-10-21T03:12:56.864Z,14.18
2022-10-21T03:15:25.470Z,14.16
2022-10-21T03:17:53.956Z,14.13
2022-10-21T03:20:22.632Z,14.11
2022-10-21T03:22:53.113Z,14.09
2022-10-21T03:25:21.651Z,14.07
2022-10-21T03:27:51.276Z,14.05
2022-10-21T03:30:20.028Z,14.03
2022-10-21T03:32:48.503Z,14.03
2022-10-21T03:35:17.115Z,14.04
2022-10-21T03:37:45.660Z,14.05
2022-10-21T03:40:15.496Z,14.07
2022-10-21T03:42:44.003Z,14.09
2022-10-21T03:45:12.768Z,14.12
2022-10-21T03:47:41.261Z,14.13
2022-10-21T03:50:13.960Z,14.16
2022-10-21T03:52:45.067Z,14.16
2022-10-21T03:55:14.857Z,14.19
2022-10-21T03:57:43.651Z,14.21
2022-10-21T04:00:14.404Z,14.23
2022-10-21T04:02:43.417Z,14.23
2022-10-21T04:05:12.291Z,14.25
2022-10-21T04:07:41.187Z,14.25
2022-10-21T04:10:11.605Z,14.24
2022-10-21T04:12:41.480Z,14.24
2022-10-21T04:15:13.637Z,14.23
2022-10-21T04:17:42.564Z,14.22
2022-10-21T04:20:12.201Z,14.22
2022-10-21T04:22:41.168Z,14.22
2022-10-21T04:25:10.467Z,14.21
2022-10-21T04:27:40.378Z,14.19
2022-10-21T04:30:10.404Z,14.18
2022-10-21T04:32:39.191Z,14.16
2022-10-21T04:35:08.175Z,14.15
2022-10-21T04:37:40.001Z,14.14
2022-10-21T04:40:10.477Z,14.13
2022-10-21T04:42:40.354Z,14.13
2022-10-21T04:45:10.111Z,14.11
2022-10-21T04:47:38.879Z,14.10
2022-10-21T04:50:08.034Z,14.09
2022-10-21T04:52:36.592Z,14.06
2022-10-21T04:55:06.801Z,14.04
2022-10-21T04:57:35.141Z,14.01
2022-10-21T05:00:06.732Z,14.00
2022-10-21T05:02:36.615Z,14.00
2022-10-21T05:05:05.850Z,13.98
2022-10-21T05:07:34.375Z,13.96
2022-10-21T05:10:02.589Z,13.97
2022-10-21T05:12:31.229Z,13.94
2022-10-21T05:15:00.518Z,13.92
2022-10-21T05:17:30.142Z,13.91
2022-10-21T05:19:58.629Z,13.88
2022-10-21T05:22:27.155Z,13.87
2022-10-21T05:24:55.364Z,13.88
2022-10-21T05:27:23.574Z,13.87
2022-10-21T05:29:52.102Z,13.88
2022-10-21T05:32:20.612Z,13.92
2022-10-21T05:34:50.232Z,13.93
2022-10-21T05:37:19.022Z,13.93
2022-10-21T05:39:47.372Z,13.96
2022-10-21T05:42:15.687Z,13.97
2022-10-21T05:44:44.173Z,13.97
2022-10-21T05:47:12.711Z,13.98
2022-10-21T05:49:41.209Z,13.99
2022-10-21T05:52:10.787Z,14.00
2022-10-21T05:54:39.034Z,14.01
2022-10-21T05:57:07.536Z,14.04
2022-10-21T05:59:35.735Z,14.06
2022-10-21T06:02:04.230Z,14.09
2022-10-21T06:04:37.792Z,14.11
2022-10-21T06:07:07.696Z,14.13
2022-10-21T06:09:37.688Z,14.15
2022-10-21T06:12:07.447Z,14.18
2022-10-21T06:14:36.582Z,14.20
2022-10-21T06:17:05.632Z,14.23
2022-10-21T06:19:34.076Z,14.25
2022-10-21T06:22:02.792Z,14.27
2022-10-21T06:24:31.327Z,14.28
2022-10-21T06:27:00.940Z,14.29
2022-10-21T06:29:29.571Z,14.31
2022-10-21T06:31:58.059Z,14.32
2022-10-21T06:34:26.676Z,14.34
2022-10-21T06:36:55.177Z,14.35
2022-10-21T06:39:23.672Z,14.36
2022-10-21T06:41:52.201Z,14.36
2022-10-21T06:44:41.717Z,14.36
2022-10-21T06:47:10.246Z,14.35
2022-10-21T06:49:38.720Z,14.35
2022-10-21T06:52:07.284Z,14.36
2022-10-21T06:54:35.820Z,14.35
2022-10-21T06:57:05.314Z,14.34
2022-10-21T06:59:33.916Z,14.35
2022-10-21T07:02:03.480Z,14.33
2022-10-21T07:04:31.995Z,14.29
2022-10-21T07:07:00.911Z,14.26
2022-10-21T07:09:30.812Z,14.24
2022-10-21T07:12:01.314Z,14.22
2022-10-21T07:14:29.934Z,14.23
2022-10-21T07:16:58.464Z,14.25
2022-10-21T07:19:28.513Z,14.27
2022-10-21T07:21:56.713Z,14.30
2022-10-21T07:24:25.309Z,14.34
2022-10-21T07:26:53.908Z,14.36
2022-10-21T07:29:22.489Z,14.41
2022-10-21T07:31:51.073Z,14.43
2022-10-21T07:34:19.543Z,14.46
2022-10-21T07:36:52.730Z,14.49
2022-10-21T07:39:25.472Z,14.52
2022-10-21T07:41:56.549Z,14.55
2022-10-21T07:44:26.762Z,14.57
2022-10-21T07:46:55.611Z,14.60
2022-10-21T07:49:24.962Z,14.65
2022-10-21T07:51:54.519Z,14.69
2022-10-21T07:54:23.600Z,14.71
2022-10-21T07:56:53.093Z,14.76
2022-10-21T07:59:23.474Z,14.79
2022-10-21T08:01:53.104Z,14.81
2022-10-21T08:04:24.894Z,14.84
2022-10-21T08:06:54.532Z,14.87
2022-10-21T08:09:23.483Z,14.87
2022-10-21T08:11:52.258Z,14.89
2022-10-21T08:14:20.772Z,14.92
2022-10-21T08:16:53.750Z,14.95
2022-10-21T08:19:29.417Z,14.98
2022-10-21T08:22:00.811Z,15.02
2022-10-21T08:24:29.442Z,15.05
2022-10-21T08:26:58.008Z,15.06
2022-10-21T08:29:26.932Z,15.09
2022-10-21T08:31:55.408Z,15.10
2022-10-21T08:34:24.575Z,15.11
2022-10-21T08:36:52.765Z,15.11
2022-10-21T08:39:24.909Z,15.14
2022-10-21T08:42:18.434Z,15.15
2022-10-21T08:44:54.965Z,15.19
2022-10-21T08:47:33.159Z,15.21
2022-10-21T08:50:06.433Z,15.21
2022-10-21T08:52:44.628Z,15.21
2022-10-21T08:55:24.053Z,15.22
2022-10-21T08:57:54.642Z,15.24
2022-10-21T09:00:25.914Z,15.27
2022-10-21T09:03:09.007Z,15.29
2022-10-21T09:06:14.982Z,15.31
2022-10-21T09:08:56.566Z,15.30
2022-10-21T09:11:44.070Z,15.30
2022-10-21T09:14:58.714Z,15.32
2022-10-21T09:17:57.445Z,15.35
2022-10-21T09:20:45.773Z,15.37
2022-10-21T09:23:44.737Z,15.37
2022-10-21T09:26:34.504Z,15.39
2022-10-21T09:29:16.687Z,15.40
2022-10-21T09:31:47.791Z,15.41
2022-10-21T09:34:23.716Z,15.38
2022-10-21T09:36:54.717Z,15.38
2022-10-21T09:39:33.705Z,15.39
2022-10-21T09:42:07.349Z,15.42
2022-10-21T09:44:47.128Z,15.41
2022-10-21T09:47:21.795Z,15.41
2022-10-21T09:50:06.909Z,15.40
2022-10-21T09:52:38.905Z,15.39
2022-10-21T09:55:14.468Z,15.39
2022-10-21T09:57:52.523Z,15.40
2022-10-21T10:00:21.123Z,15.42
2022-10-21T10:02:50.326Z,15.44
2022-10-21T10:05:42.167Z,15.44
2022-10-21T10:08:40.142Z,15.47
2022-10-21T10:11:18.835Z,15.51
2022-10-21T10:13:50.937Z,15.53
2022-10-21T10:16:27.545Z,15.55
2022-10-21T10:19:17.510Z,15.56
2022-10-21T10:21:48.180Z,15.58
2022-10-21T10:24:20.109Z,15.59
2022-10-21T10:26:49.788Z,15.61
2022-10-21T10:29:27.725Z,15.63
2022-10-21T10:31:59.430Z,15.65
2022-10-21T10:34:34.561Z,15.67
2022-10-21T10:37:09.072Z,15.69
2022-10-21T10:39:40.840Z,15.73
2022-10-21T10:42:09.500Z,15.77
2022-10-21T10:44:44.524Z,15.77
2022-10-21T10:47:21.800Z,15.80
2022-10-21T10:49:51.639Z,15.83
2022-10-21T10:52:24.169Z,15.85
2022-10-21T10:55:19.352Z,15.87
2022-10-21T10:58:06.090Z,15.91
2022-10-21T11:00:45.840Z,15.94
2022-10-21T11:03:26.074Z,16.00
2022-10-21T11:06:02.348Z,16.03
2022-10-21T11:08:37.223Z,16.07
2022-10-21T11:11:11.827Z,16.14
2022-10-21T11:13:42.305Z,16.22
2022-10-21T11:16:59.013Z,16.31
2022-10-21T11:19:40.558Z,16.44
2022-10-21T11:22:16.340Z,16.52
2022-10-21T11:25:12.409Z,16.56
2022-10-21T11:28:04.106Z,16.62
2022-10-21T11:30:47.827Z,17.02
2022-10-21T11:33:29.108Z,17.25
2022-10-21T11:36:08.010Z,17.42
2022-10-21T11:39:31.734Z,17.48
2022-10-21T11:42:10.040Z,17.42
2022-10-21T11:44:53.916Z,17.47
2022-10-21T11:47:29.600Z,17.65
2022-10-21T11:50:13.004Z,17.99
2022-10-21T11:52:57.688Z,18.27
2022-10-21T11:55:39.769Z,18.31
2022-10-21T11:58:33.744Z,18.28
2022-10-21T12:01:25.412Z,18.75
2022-10-21T12:04:22.459Z,18.80
2022-10-21T12:07:11.018Z,18.76
2022-10-21T12:09:46.324Z,18.75
2022-10-21T12:12:18.668Z,18.83
2022-10-21T12:14:53.767Z,19.08
2022-10-21T12:17:23.855Z,19.39
2022-10-21T12:19:59.068Z,19.24
2022-10-21T12:22:33.069Z,19.19
2022-10-21T12:25:20.829Z,19.25
2022-10-21T12:27:55.930Z,19.47
2022-10-21T12:30:33.783Z,19.59
2022-10-21T12:33:16.890Z,19.93
2022-10-21T12:35:53.175Z,19.97
2022-10-21T12:38:43.785Z,20.08
2022-10-21T12:41:34.218Z,20.33
2022-10-21T12:44:24.864Z,20.57
2022-10-21T12:46:56.778Z,20.72
2022-10-21T12:49:36.419Z,20.76
2022-10-21T12:52:13.862Z,20.91
2022-10-21T12:54:56.880Z,20.72
2022-10-21T12:57:29.689Z,20.42
2022-10-21T13:00:51.054Z,20.30
2022-10-21T13:03:22.820Z,20.55
2022-10-21T13:06:07.039Z,20.74
2022-10-21T13:08:51.653Z,20.83
2022-10-21T13:11:40.470Z,20.92
2022-10-21T13:14:35.345Z,21.17
2022-10-21T13:17:48.932Z,21.34
2022-10-21T13:20:47.033Z,21.41
2022-10-21T13:23:37.863Z,21.43
2022-10-21T13:26:19.979Z,21.59
2022-10-21T13:29:16.550Z,21.56
2022-10-21T13:31:45.372Z,21.23
2022-10-21T13:34:29.417Z,20.91
2022-10-21T13:36:58.657Z,20.58
2022-10-21T13:39:34.501Z,20.24
2022-10-21T13:42:06.529Z,19.96
2022-10-21T13:44:39.744Z,19.70
2022-10-21T13:47:30.627Z,19.44
2022-10-21T13:50:11.661Z,19.29
2022-10-21T13:52:43.238Z,19.14
2022-10-21T13:55:20.605Z,19.03
2022-10-21T13:57:51.357Z,18.95
2022-10-21T14:00:25.173Z,18.88
2022-10-21T14:03:00.631Z,18.81
2022-10-21T14:05:37.793Z,18.76
2022-10-21T14:08:18.274Z,18.78
2022-10-21T14:10:48.443Z,18.82
2022-10-21T14:13:20.583Z,18.84
2022-10-21T14:15:50.811Z,18.85
2022-10-21T14:18:34.925Z,18.84
2022-10-21T14:21:07.423Z,18.85
2022-10-21T14:23:36.425Z,18.82
2022-10-21T14:26:09.705Z,18.80
2022-10-21T14:28:38.937Z,18.81
2022-10-21T14:31:12.411Z,18.79
2022-10-21T14:33:43.345Z,18.80
2022-10-21T14:36:20.325Z,18.79
2022-10-21T14:39:00.402Z,18.75
2022-10-21T14:41:35.504Z,18.70
2022-10-21T14:44:14.486Z,18.65
2022-10-21T14:46:47.275Z,18.60
2022-10-21T14:49:26.489Z,18.54
2022-10-21T14:52:01.106Z,18.50
2022-10-21T14:54:41.764Z,18.48
2022-10-21T14:57:33.199Z,18.44
2022-10-21T15:00:03.370Z,18.42
2022-10-21T15:02:37.156Z,18.38
2022-10-21T15:05:26.656Z,18.34
2022-10-21T15:08:17.014Z,18.25
2022-10-21T15:10:45.450Z,18.23
2022-10-21T15:13:18.280Z,18.20
2022-10-21T15:15:53.223Z,18.15
2022-10-21T15:18:29.245Z,18.12
2022-10-21T15:21:00.204Z,18.07
2022-10-21T15:23:32.967Z,18.02
2022-10-21T15:26:06.003Z,17.99
2022-10-21T15:28:36.499Z,17.95
2022-10-21T15:31:09.241Z,17.90
2022-10-21T15:33:38.864Z,17.83
2022-10-21T15:36:09.819Z,17.81
2022-10-21T15:38:44.501Z,17.77
2022-10-21T15:41:16.218Z,17.72
2022-10-21T15:43:58.267Z,17.68
2022-10-21T15:46:27.173Z,17.65
2022-10-21T15:48:57.985Z,17.62
2022-10-21T15:51:26.384Z,17.60
2022-10-21T15:53:54.582Z,17.57
2022-10-21T15:56:24.277Z,17.55
2022-10-21T15:58:52.460Z,17.50
2022-10-21T16:01:21.141Z,17.47
2022-10-21T16:03:49.435Z,17.45
2022-10-21T16:06:21.715Z,17.44
2022-10-21T16:08:51.667Z,17.39
2022-10-21T16:11:34.642Z,17.37
2022-10-21T16:14:10.198Z,17.30
2022-10-21T16:16:41.723Z,17.26
2022-10-21T16:19:10.901Z,17.23
2022-10-21T16:21:41.085Z,17.21
2022-10-21T16:24:09.559Z,17.17
2022-10-21T16:26:42.413Z,17.15
2022-10-21T16:29:13.848Z,17.14
2022-10-21T16:31:42.084Z,17.10
2022-10-21T16:34:10.299Z,17.09
2022-10-21T16:36:40.243Z,17.06
2022-10-21T16:39:14.786Z,17.03
2022-10-21T16:41:43.156Z,16.99
2022-10-21T16:44:11.724Z,16.95
2022-10-21T16:46:42.682Z,16.93
2022-10-21T16:49:15.320Z,16.89
2022-10-21T16:51:46.876Z,16.86
2022-10-21T16:54:15.744Z,16.83
2022-10-21T16:56:44.284Z,16.79
2022-10-21T16:59:12.868Z,16.77
2022-10-21T17:01:41.588Z,16.76
2022-10-21T17:04:14.210Z,16.73
2022-10-21T17:06:44.263Z,16.72
2022-10-21T17:09:12.490Z,16.69
2022-10-21T17:11:42.499Z,16.67
2022-10-21T17:14:16.102Z,16.65
2022-10-21T17:16:45.239Z,16.62
2022-10-21T17:19:13.943Z,16.60
2022-10-21T17:21:44.055Z,16.59
2022-10-21T17:24:17.595Z,16.55
2022-10-21T17:26:46.361Z,16.56
2022-10-21T17:29:15.536Z,16.53
2022-10-21T17:31:44.713Z,16.49
2022-10-21T17:34:26.840Z,16.44
2022-10-21T17:36:57.035Z,16.42
2022-10-21T17:39:25.727Z,16.41
2022-10-21T17:41:54.018Z,16.40
2022-10-21T17:44:22.860Z,16.37
2022-10-21T17:46:54.350Z,16.37
2022-10-21T17:49:23.255Z,16.34
2022-10-21T17:51:52.109Z,16.32
2022-10-21T17:54:26.100Z,16.30
2022-10-21T17:56:57.820Z,16.27
2022-10-21T17:59:26.704Z,16.25
2022-10-21T18:01:54.931Z,16.25
2022-10-21T18:04:23.157Z,16.23
2022-10-21T18:06:51.351Z,16.23
2022-10-21T18:09:20.984Z,16.22
2022-10-21T18:11:49.665Z,16.21
2022-10-21T18:14:18.196Z,16.19
2022-10-21T18:16:46.781Z,16.15
2022-10-21T18:19:15.324Z,16.12
2022-10-21T18:21:43.924Z,16.10
2022-10-21T18:24:12.799Z,16.08
2022-10-21T18:26:42.594Z,16.05
2022-10-21T18:29:10.808Z,16.03
2022-10-21T18:31:39.975Z,16.00
2022-10-21T18:34:09.331Z,15.98
2022-10-21T18:36:37.984Z,15.96
2022-10-21T18:39:06.940Z,15.94
2022-10-21T18:41:36.160Z,15.91
2022-10-21T18:44:08.950Z,15.87
2022-10-21T18:46:39.884Z,15.84
2022-10-21T18:49:11.716Z,15.82
2022-10-21T18:51:40.240Z,15.79
2022-10-21T18:54:08.768Z,15.77
2022-10-21T18:56:37.038Z,15.77
2022-10-21T18:59:07.018Z,15.76
2022-10-21T19:01:35.335Z,15.77
2022-10-21T19:04:03.917Z,15.78
2022-10-21T19:06:39.621Z,15.79
2022-10-21T19:09:12.954Z,15.80
2022-10-21T19:11:42.293Z,15.80
2022-10-21T19:14:14.351Z,15.78
2022-10-21T19:16:43.696Z,15.77
2022-10-21T19:19:13.037Z,15.75
2022-10-21T19:21:41.968Z,15.74
2022-10-21T19:24:11.646Z,15.73
2022-10-21T19:26:42.155Z,15.75
2022-10-21T19:29:16.168Z,15.77
2022-10-21T19:34:20.992Z,15.81
2022-10-21T19:36:49.376Z,15.80
2022-10-21T19:39:17.973Z,15.82
2022-10-21T19:41:46.340Z,15.84
2022-10-21T19:44:16.053Z,15.86
2022-10-21T19:46:44.620Z,15.89
2022-10-21T19:49:15.328Z,15.92
2022-10-21T19:51:43.896Z,15.93
2022-10-21T19:54:13.882Z,15.93
2022-10-21T19:56:42.615Z,15.92
2022-10-21T19:59:11.847Z,15.92
2022-10-21T20:01:41.548Z,15.91
2022-10-21T20:04:09.930Z,15.88
2022-10-21T20:06:39.388Z,15.86
2022-10-21T20:09:10.485Z,15.82
2022-10-21T20:11:40.444Z,15.77
2022-10-21T20:14:09.213Z,15.71
2022-10-21T20:16:42.315Z,15.66
2022-10-21T20:19:13.314Z,15.62
2022-10-21T20:21:42.935Z,15.58
2022-10-21T20:24:14.220Z,15.53
2022-10-21T20:26:44.391Z,15.50
2022-10-21T20:29:13.218Z,15.47
2022-10-21T20:31:42.781Z,15.46
2022-10-21T20:34:13.583Z,15.43
2022-10-21T20:36:42.148Z,15.41
2022-10-21T20:39:11.316Z,15.39
2022-10-21T20:41:40.174Z,15.37
2022-10-21T20:44:12.225Z,15.37
2022-10-21T20:46:42.172Z,15.37
2022-10-21T20:49:11.236Z,15.36
2022-10-21T20:51:43.064Z,15.36
2022-10-21T20:54:15.072Z,15.35
2022-10-21T20:56:44.484Z,15.35
2022-10-21T20:59:15.839Z,15.34
2022-10-21T21:01:47.652Z,15.35
2022-10-21T21:04:20.554Z,15.34
2022-10-21T21:06:50.763Z,15.35
2022-10-21T21:09:43.701Z,15.34
2022-10-21T21:12:10.110Z,15.33
2022-10-21T21:14:38.608Z,15.30
2022-10-21T21:17:08.288Z,15.28
2022-10-21T21:19:36.551Z,15.26
2022-10-21T21:22:05.076Z,15.25
2022-10-21T21:24:33.546Z,15.23
2022-10-21T21:27:02.056Z,15.25
2022-10-21T21:29:30.550Z,15.23
2022-10-21T21:31:59.307Z,15.24
2022-10-21T21:34:29.103Z,15.25
2022-10-21T21:36:57.614Z,15.26
2022-10-21T21:39:26.226Z,15.26
2022-10-21T21:41:54.979Z,15.29
2022-10-21T21:44:23.444Z,15.31
2022-10-21T21:46:51.916Z,15.31
2022-10-21T21:49:20.435Z,15.32
2022-10-21T21:51:49.956Z,15.35
2022-10-21T21:54:18.350Z,15.35
2022-10-21T21:56:46.942Z,15.37
2022-10-21T21:59:15.487Z,15.40
2022-10-21T22:01:44.120Z,15.41
2022-10-21T22:04:12.658Z,15.44
2022-10-21T22:06:40.928Z,15.46
2022-10-21T22:09:11.956Z,15.47
2022-10-21T22:11:40.508Z,15.49
2022-10-21T22:14:09.054Z,15.50
2022-10-21T22:16:37.912Z,15.52
2022-10-21T22:19:06.486Z,15.53
2022-10-21T22:21:34.815Z,15.53
2022-10-21T22:24:03.338Z,15.53
2022-10-21T22:26:32.964Z,15.53
2022-10-21T22:29:01.466Z,15.55
2022-10-21T22:31:30.827Z,15.57
2022-10-21T22:34:01.252Z,15.57
2022-10-21T22:36:30.009Z,15.58
2022-10-21T22:38:58.880Z,15.57
2022-10-21T22:41:27.847Z,15.58
2022-10-21T22:43:57.395Z,15.57
2022-10-21T22:46:40.947Z,15.55
2022-10-21T22:49:10.655Z,15.53
2022-10-21T22:51:39.215Z,15.53
2022-10-21T22:54:19.256Z,15.56
2022-10-21T22:56:52.832Z,15.53
2022-10-21T22:59:22.569Z,15.55
2022-10-21T23:01:50.809Z,15.55
2022-10-21T23:04:19.050Z,15.54
2022-10-21T23:06:47.313Z,15.55
2022-10-21T23:09:15.868Z,15.53
2022-10-21T23:11:44.238Z,15.53
2022-10-21T23:14:12.732Z,15.52
2022-10-21T23:16:42.367Z,15.50
2022-10-21T23:21:42.288Z,15.48
2022-10-21T23:24:11.096Z,15.47
2022-10-21T23:26:39.365Z,15.46
2022-10-21T23:29:07.927Z,15.46
2022-10-21T23:31:36.210Z,15.46
2022-10-21T23:34:06.096Z,15.47
2022-10-21T23:36:35.441Z,15.47
2022-10-21T23:39:04.511Z,15.47
2022-10-21T23:41:32.723Z,15.49
2022-10-21T23:44:01.404Z,15.49
2022-10-21T23:46:30.043Z,15.50
2022-10-21T23:48:58.551Z,15.51
2022-10-21T23:51:28.187Z,15.52
2022-10-21T23:53:56.891Z,15.53
2022-10-21T23:56:25.085Z,15.55
2022-10-21T23:58:53.559Z,15.56
